sensor_id;sensor_type;location;lat;lon;timestamp;temperature;humidity
45693;DHT22;31402;44.752;-0.374;2022-12-10T00:01:54;5.40;96.30
45693;DHT22;31402;44.752;-0.374;2022-12-10T00:04:21;5.30;96.30
45693;DHT22;31402;44.752;-0.374;2022-12-10T00:06:48;5.30;96.20
45693;DHT22;31402;44.752;-0.374;2022-12-10T00:09:17;5.30;96.20
45693;DHT22;31402;44.752;-0.374;2022-12-10T00:11:44;5.20;96.40
45693;DHT22;31402;44.752;-0.374;2022-12-10T00:14:11;5.30;96.40
45693;DHT22;31402;44.752;-0.374;2022-12-10T00:16:37;5.40;96.60
45693;DHT22;31402;44.752;-0.374;2022-12-10T00:19:04;5.60;96.30
45693;DHT22;31402;44.752;-0.374;2022-12-10T00:21:32;5.60;96.30
45693;DHT22;31402;44.752;-0.374;2022-12-10T00:23:58;5.50;96.20
45693;DHT22;31402;44.752;-0.374;2022-12-10T00:26:28;5.40;96.00
45693;DHT22;31402;44.752;-0.374;2022-12-10T00:28:55;5.40;96.10
45693;DHT22;31402;44.752;-0.374;2022-12-10T00:31:24;5.40;96.10
45693;DHT22;31402;44.752;-0.374;2022-12-10T00:33:52;5.50;96.10
45693;DHT22;31402;44.752;-0.374;2022-12-10T00:36:22;5.40;96.00
45693;DHT22;31402;44.752;-0.374;2022-12-10T00:38:49;5.40;96.30
45693;DHT22;31402;44.752;-0.374;2022-12-10T00:41:16;5.40;96.00
45693;DHT22;31402;44.752;-0.374;2022-12-10T00:43:42;5.50;96.10
45693;DHT22;31402;44.752;-0.374;2022-12-10T00:46:09;5.30;95.90
45693;DHT22;31402;44.752;-0.374;2022-12-10T00:48:35;5.40;96.00
45693;DHT22;31402;44.752;-0.374;2022-12-10T00:51:02;5.30;95.70
45693;DHT22;31402;44.752;-0.374;2022-12-10T00:53:29;5.30;96.00
45693;DHT22;31402;44.752;-0.374;2022-12-10T00:55:56;5.20;95.90
45693;DHT22;31402;44.752;-0.374;2022-12-10T00:58:23;5.20;96.10
45693;DHT22;31402;44.752;-0.374;2022-12-10T01:00:49;5.20;95.70
45693;DHT22;31402;44.752;-0.374;2022-12-10T01:03:15;5.30;95.80
45693;DHT22;31402;44.752;-0.374;2022-12-10T01:05:41;5.40;96.00
45693;DHT22;31402;44.752;-0.374;2022-12-10T01:08:07;5.40;95.70
45693;DHT22;31402;44.752;-0.374;2022-12-10T01:10:33;5.50;95.50
45693;DHT22;31402;44.752;-0.374;2022-12-10T01:12:58;5.40;95.40
45693;DHT22;31402;44.752;-0.374;2022-12-10T01:15:24;5.30;95.80
45693;DHT22;31402;44.752;-0.374;2022-12-10T01:17:50;5.30;95.90
45693;DHT22;31402;44.752;-0.374;2022-12-10T01:20:16;5.20;95.60
45693;DHT22;31402;44.752;-0.374;2022-12-10T01:22:41;5.10;95.70
45693;DHT22;31402;44.752;-0.374;2022-12-10T01:25:07;5.00;96.00
45693;DHT22;31402;44.752;-0.374;2022-12-10T01:27:33;5.10;96.10
45693;DHT22;31402;44.752;-0.374;2022-12-10T01:29:59;5.10;96.20
45693;DHT22;31402;44.752;-0.374;2022-12-10T01:32:25;5.00;96.10
45693;DHT22;31402;44.752;-0.374;2022-12-10T01:34:50;5.00;96.20
45693;DHT22;31402;44.752;-0.374;2022-12-10T01:37:16;5.10;96.10
45693;DHT22;31402;44.752;-0.374;2022-12-10T01:39:42;5.10;96.10
45693;DHT22;31402;44.752;-0.374;2022-12-10T01:42:13;5.10;96.10
45693;DHT22;31402;44.752;-0.374;2022-12-10T01:47:08;5.00;95.80
45693;DHT22;31402;44.752;-0.374;2022-12-10T01:49:37;5.20;96.40
45693;DHT22;31402;44.752;-0.374;2022-12-10T01:52:06;5.10;96.00
45693;DHT22;31402;44.752;-0.374;2022-12-10T01:54:36;5.10;96.00
45693;DHT22;31402;44.752;-0.374;2022-12-10T01:57:12;5.20;96.10
45693;DHT22;31402;44.752;-0.374;2022-12-10T01:59:39;5.00;95.90
45693;DHT22;31402;44.752;-0.374;2022-12-10T02:02:19;4.90;96.00
45693;DHT22;31402;44.752;-0.374;2022-12-10T02:05:11;4.80;96.10
45693;DHT22;31402;44.752;-0.374;2022-12-10T02:13:40;4.70;96.00
45693;DHT22;31402;44.752;-0.374;2022-12-10T02:18:39;4.70;95.90
45693;DHT22;31402;44.752;-0.374;2022-12-10T02:21:30;4.80;96.20
45693;DHT22;31402;44.752;-0.374;2022-12-10T02:24:04;4.70;96.20
45693;DHT22;31402;44.752;-0.374;2022-12-10T02:26:51;4.50;96.10
45693;DHT22;31402;44.752;-0.374;2022-12-10T02:29:22;4.60;96.30
45693;DHT22;31402;44.752;-0.374;2022-12-10T02:31:53;4.80;96.40
45693;DHT22;31402;44.752;-0.374;2022-12-10T02:34:21;4.80;96.00
45693;DHT22;31402;44.752;-0.374;2022-12-10T02:36:51;4.70;95.70
45693;DHT22;31402;44.752;-0.374;2022-12-10T02:39:26;4.70;96.10
45693;DHT22;31402;44.752;-0.374;2022-12-10T02:41:55;4.50;95.90
45693;DHT22;31402;44.752;-0.374;2022-12-10T02:44:22;4.60;96.10
45693;DHT22;31402;44.752;-0.374;2022-12-10T02:46:52;4.60;96.10
45693;DHT22;31402;44.752;-0.374;2022-12-10T02:49:18;4.60;95.80
45693;DHT22;31402;44.752;-0.374;2022-12-10T02:51:45;4.60;95.90
45693;DHT22;31402;44.752;-0.374;2022-12-10T02:54:44;4.60;95.70
45693;DHT22;31402;44.752;-0.374;2022-12-10T03:00:21;4.50;96.20
45693;DHT22;31402;44.752;-0.374;2022-12-10T03:02:51;4.50;96.10
45693;DHT22;31402;44.752;-0.374;2022-12-10T03:08:09;4.60;96.00
45693;DHT22;31402;44.752;-0.374;2022-12-10T03:13:18;4.40;95.90
45693;DHT22;31402;44.752;-0.374;2022-12-10T03:15:46;4.40;95.90
45693;DHT22;31402;44.752;-0.374;2022-12-10T03:18:16;4.40;95.80
45693;DHT22;31402;44.752;-0.374;2022-12-10T03:20:45;4.40;96.10
45693;DHT22;31402;44.752;-0.374;2022-12-10T03:23:16;4.40;95.90
45693;DHT22;31402;44.752;-0.374;2022-12-10T03:25:44;4.40;96.00
45693;DHT22;31402;44.752;-0.374;2022-12-10T03:28:13;4.40;95.80
45693;DHT22;31402;44.752;-0.374;2022-12-10T03:30:40;4.40;95.80
45693;DHT22;31402;44.752;-0.374;2022-12-10T03:33:07;4.60;95.70
45693;DHT22;31402;44.752;-0.374;2022-12-10T03:35:33;4.60;95.70
45693;DHT22;31402;44.752;-0.374;2022-12-10T03:37:59;4.60;95.80
45693;DHT22;31402;44.752;-0.374;2022-12-10T03:40:26;4.60;95.70
45693;DHT22;31402;44.752;-0.374;2022-12-10T03:42:52;4.60;95.30
45693;DHT22;31402;44.752;-0.374;2022-12-10T03:45:18;4.60;95.60
45693;DHT22;31402;44.752;-0.374;2022-12-10T03:47:43;4.60;95.40
45693;DHT22;31402;44.752;-0.374;2022-12-10T03:50:10;4.60;95.40
45693;DHT22;31402;44.752;-0.374;2022-12-10T03:52:36;4.60;95.60
45693;DHT22;31402;44.752;-0.374;2022-12-10T03:55:02;4.60;95.50
45693;DHT22;31402;44.752;-0.374;2022-12-10T03:57:28;4.60;95.30
45693;DHT22;31402;44.752;-0.374;2022-12-10T03:59:54;4.40;95.40
45693;DHT22;31402;44.752;-0.374;2022-12-10T04:02:20;4.50;95.50
45693;DHT22;31402;44.752;-0.374;2022-12-10T04:04:45;4.50;95.90
45693;DHT22;31402;44.752;-0.374;2022-12-10T04:07:11;4.40;95.40
45693;DHT22;31402;44.752;-0.374;2022-12-10T04:09:37;4.50;95.70
45693;DHT22;31402;44.752;-0.374;2022-12-10T04:12:03;4.40;95.40
45693;DHT22;31402;44.752;-0.374;2022-12-10T04:14:30;4.40;95.70
45693;DHT22;31402;44.752;-0.374;2022-12-10T04:17:14;4.40;95.60
45693;DHT22;31402;44.752;-0.374;2022-12-10T04:19:40;4.30;95.40
45693;DHT22;31402;44.752;-0.374;2022-12-10T04:22:08;4.30;95.50
45693;DHT22;31402;44.752;-0.374;2022-12-10T04:24:53;4.30;95.40
45693;DHT22;31402;44.752;-0.374;2022-12-10T04:27:38;4.20;95.40
45693;DHT22;31402;44.752;-0.374;2022-12-10T04:30:10;4.20;95.50
45693;DHT22;31402;44.752;-0.374;2022-12-10T04:32:35;4.20;95.60
45693;DHT22;31402;44.752;-0.374;2022-12-10T04:35:01;4.20;95.50
45693;DHT22;31402;44.752;-0.374;2022-12-10T04:37:28;4.30;95.50
45693;DHT22;31402;44.752;-0.374;2022-12-10T04:39:54;4.30;95.50
45693;DHT22;31402;44.752;-0.374;2022-12-10T04:42:21;4.30;95.30
45693;DHT22;31402;44.752;-0.374;2022-12-10T04:44:47;4.20;95.40
45693;DHT22;31402;44.752;-0.374;2022-12-10T04:47:13;4.10;95.70
45693;DHT22;31402;44.752;-0.374;2022-12-10T04:49:39;4.10;95.80
45693;DHT22;31402;44.752;-0.374;2022-12-10T04:52:06;4.20;95.60
45693;DHT22;31402;44.752;-0.374;2022-12-10T04:54:32;4.10;95.50
45693;DHT22;31402;44.752;-0.374;2022-12-10T04:56:58;4.10;95.60
45693;DHT22;31402;44.752;-0.374;2022-12-10T04:59:24;4.10;95.70
45693;DHT22;31402;44.752;-0.374;2022-12-10T05:01:50;4.20;95.60
45693;DHT22;31402;44.752;-0.374;2022-12-10T05:04:17;4.20;95.40
45693;DHT22;31402;44.752;-0.374;2022-12-10T05:06:44;4.20;95.30
45693;DHT22;31402;44.752;-0.374;2022-12-10T05:09:12;4.20;95.60
45693;DHT22;31402;44.752;-0.374;2022-12-10T05:11:38;4.10;95.10
45693;DHT22;31402;44.752;-0.374;2022-12-10T05:14:04;4.00;95.60
45693;DHT22;31402;44.752;-0.374;2022-12-10T05:16:32;3.80;95.60
45693;DHT22;31402;44.752;-0.374;2022-12-10T05:18:59;3.80;95.80
45693;DHT22;31402;44.752;-0.374;2022-12-10T05:21:26;3.90;95.90
45693;DHT22;31402;44.752;-0.374;2022-12-10T05:24:16;4.00;95.50
45693;DHT22;31402;44.752;-0.374;2022-12-10T05:26:43;3.90;95.50
45693;DHT22;31402;44.752;-0.374;2022-12-10T05:29:09;3.90;95.60
45693;DHT22;31402;44.752;-0.374;2022-12-10T05:31:35;3.90;95.50
45693;DHT22;31402;44.752;-0.374;2022-12-10T05:34:01;3.80;95.70
45693;DHT22;31402;44.752;-0.374;2022-12-10T05:36:29;3.80;95.60
45693;DHT22;31402;44.752;-0.374;2022-12-10T05:38:56;3.80;95.70
45693;DHT22;31402;44.752;-0.374;2022-12-10T05:41:25;3.70;95.80
45693;DHT22;31402;44.752;-0.374;2022-12-10T05:43:54;3.80;95.80
45693;DHT22;31402;44.752;-0.374;2022-12-10T05:46:29;3.80;95.80
45693;DHT22;31402;44.752;-0.374;2022-12-10T05:48:55;3.80;95.80
45693;DHT22;31402;44.752;-0.374;2022-12-10T05:51:24;3.90;95.50
45693;DHT22;31402;44.752;-0.374;2022-12-10T05:53:51;3.70;95.50
45693;DHT22;31402;44.752;-0.374;2022-12-10T05:56:19;3.70;95.60
45693;DHT22;31402;44.752;-0.374;2022-12-10T05:58:47;3.60;95.50
45693;DHT22;31402;44.752;-0.374;2022-12-10T06:01:15;3.60;95.90
45693;DHT22;31402;44.752;-0.374;2022-12-10T06:03:41;3.60;95.60
45693;DHT22;31402;44.752;-0.374;2022-12-10T06:06:07;3.80;95.90
45693;DHT22;31402;44.752;-0.374;2022-12-10T06:08:34;3.90;95.60
45693;DHT22;31402;44.752;-0.374;2022-12-10T06:11:09;3.90;95.40
45693;DHT22;31402;44.752;-0.374;2022-12-10T06:13:36;3.80;95.50
45693;DHT22;31402;44.752;-0.374;2022-12-10T06:16:10;3.70;95.60
45693;DHT22;31402;44.752;-0.374;2022-12-10T06:18:37;3.50;95.70
45693;DHT22;31402;44.752;-0.374;2022-12-10T06:21:08;3.60;95.90
45693;DHT22;31402;44.752;-0.374;2022-12-10T06:23:35;3.50;95.80
45693;DHT22;31402;44.752;-0.374;2022-12-10T06:26:21;3.40;95.90
45693;DHT22;31402;44.752;-0.374;2022-12-10T06:28:48;3.50;96.00
45693;DHT22;31402;44.752;-0.374;2022-12-10T06:31:15;3.50;96.00
45693;DHT22;31402;44.752;-0.374;2022-12-10T06:33:41;3.50;95.90
45693;DHT22;31402;44.752;-0.374;2022-12-10T06:36:09;3.60;95.60
45693;DHT22;31402;44.752;-0.374;2022-12-10T06:38:36;3.60;95.60
45693;DHT22;31402;44.752;-0.374;2022-12-10T06:41:07;3.50;95.80
45693;DHT22;31402;44.752;-0.374;2022-12-10T06:43:33;3.50;95.80
45693;DHT22;31402;44.752;-0.374;2022-12-10T06:46:03;3.50;95.60
45693;DHT22;31402;44.752;-0.374;2022-12-10T06:48:29;3.50;95.80
45693;DHT22;31402;44.752;-0.374;2022-12-10T06:50:55;3.50;95.70
45693;DHT22;31402;44.752;-0.374;2022-12-10T06:53:21;3.60;95.60
45693;DHT22;31402;44.752;-0.374;2022-12-10T06:55:46;3.70;95.60
45693;DHT22;31402;44.752;-0.374;2022-12-10T06:58:12;3.70;95.20
45693;DHT22;31402;44.752;-0.374;2022-12-10T07:00:38;3.70;95.30
45693;DHT22;31402;44.752;-0.374;2022-12-10T07:03:04;3.50;95.30
45693;DHT22;31402;44.752;-0.374;2022-12-10T07:05:30;3.50;95.60
45693;DHT22;31402;44.752;-0.374;2022-12-10T07:07:55;3.40;95.60
45693;DHT22;31402;44.752;-0.374;2022-12-10T07:10:22;3.40;95.70
45693;DHT22;31402;44.752;-0.374;2022-12-10T07:12:48;3.40;95.50
45693;DHT22;31402;44.752;-0.374;2022-12-10T07:15:13;3.30;95.70
45693;DHT22;31402;44.752;-0.374;2022-12-10T07:17:39;3.40;95.70
45693;DHT22;31402;44.752;-0.374;2022-12-10T07:20:05;3.50;95.60
45693;DHT22;31402;44.752;-0.374;2022-12-10T07:22:31;3.50;95.40
45693;DHT22;31402;44.752;-0.374;2022-12-10T07:24:57;3.50;95.60
45693;DHT22;31402;44.752;-0.374;2022-12-10T07:27:22;3.40;95.40
45693;DHT22;31402;44.752;-0.374;2022-12-10T07:29:48;3.50;95.60
45693;DHT22;31402;44.752;-0.374;2022-12-10T07:32:14;3.50;95.50
45693;DHT22;31402;44.752;-0.374;2022-12-10T07:34:40;3.40;95.60
45693;DHT22;31402;44.752;-0.374;2022-12-10T07:37:05;3.30;95.60
45693;DHT22;31402;44.752;-0.374;2022-12-10T07:39:32;3.30;96.00
45693;DHT22;31402;44.752;-0.374;2022-12-10T07:41:58;3.40;95.80
45693;DHT22;31402;44.752;-0.374;2022-12-10T07:44:25;3.40;95.80
45693;DHT22;31402;44.752;-0.374;2022-12-10T07:46:52;3.50;95.90
45693;DHT22;31402;44.752;-0.374;2022-12-10T07:49:18;3.70;95.60
45693;DHT22;31402;44.752;-0.374;2022-12-10T07:51:46;4.00;95.50
45693;DHT22;31402;44.752;-0.374;2022-12-10T07:54:12;4.40;95.20
45693;DHT22;31402;44.752;-0.374;2022-12-10T07:56:38;4.60;94.50
45693;DHT22;31402;44.752;-0.374;2022-12-10T07:59:04;4.80;94.50
45693;DHT22;31402;44.752;-0.374;2022-12-10T08:01:29;5.00;94.40
45693;DHT22;31402;44.752;-0.374;2022-12-10T08:03:56;5.40;94.30
45693;DHT22;31402;44.752;-0.374;2022-12-10T08:06:22;5.60;93.90
45693;DHT22;31402;44.752;-0.374;2022-12-10T08:08:49;6.00;93.80
45693;DHT22;31402;44.752;-0.374;2022-12-10T08:11:16;6.30;93.40
45693;DHT22;31402;44.752;-0.374;2022-12-10T08:13:43;6.60;92.70
45693;DHT22;31402;44.752;-0.374;2022-12-10T08:16:14;6.90;93.10
45693;DHT22;31402;44.752;-0.374;2022-12-10T08:18:41;7.30;93.60
45693;DHT22;31402;44.752;-0.374;2022-12-10T08:21:09;7.50;93.40
45693;DHT22;31402;44.752;-0.374;2022-12-10T08:23:35;7.50;92.40
45693;DHT22;31402;44.752;-0.374;2022-12-10T08:26:12;7.60;92.30
45693;DHT22;31402;44.752;-0.374;2022-12-10T08:28:38;7.80;91.50
45693;DHT22;31402;44.752;-0.374;2022-12-10T08:31:04;7.90;91.70
45693;DHT22;31402;44.752;-0.374;2022-12-10T08:33:33;8.10;91.10
45693;DHT22;31402;44.752;-0.374;2022-12-10T08:36:00;8.00;91.50
45693;DHT22;31402;44.752;-0.374;2022-12-10T08:38:26;7.60;91.30
45693;DHT22;31402;44.752;-0.374;2022-12-10T08:40:52;7.30;91.80
45693;DHT22;31402;44.752;-0.374;2022-12-10T08:43:18;7.10;91.80
45693;DHT22;31402;44.752;-0.374;2022-12-10T08:45:44;6.90;92.50
45693;DHT22;31402;44.752;-0.374;2022-12-10T08:48:10;7.30;92.40
45693;DHT22;31402;44.752;-0.374;2022-12-10T08:50:36;7.60;92.00
45693;DHT22;31402;44.752;-0.374;2022-12-10T08:53:02;7.80;91.90
45693;DHT22;31402;44.752;-0.374;2022-12-10T08:55:28;8.00;91.70
45693;DHT22;31402;44.752;-0.374;2022-12-10T08:57:54;8.40;91.30
45693;DHT22;31402;44.752;-0.374;2022-12-10T09:00:21;8.40;91.20
45693;DHT22;31402;44.752;-0.374;2022-12-10T09:02:46;8.40;91.70
45693;DHT22;31402;44.752;-0.374;2022-12-10T09:05:12;8.30;91.90
45693;DHT22;31402;44.752;-0.374;2022-12-10T09:07:38;8.10;91.90
45693;DHT22;31402;44.752;-0.374;2022-12-10T09:10:05;7.90;92.30
45693;DHT22;31402;44.752;-0.374;2022-12-10T09:12:33;7.90;92.60
45693;DHT22;31402;44.752;-0.374;2022-12-10T09:14:59;8.00;92.50
45693;DHT22;31402;44.752;-0.374;2022-12-10T09:17:25;8.20;93.00
45693;DHT22;31402;44.752;-0.374;2022-12-10T09:19:51;8.50;94.00
45693;DHT22;31402;44.752;-0.374;2022-12-10T09:22:17;8.50;94.30
45693;DHT22;31402;44.752;-0.374;2022-12-10T09:24:42;8.50;94.10
45693;DHT22;31402;44.752;-0.374;2022-12-10T09:27:08;8.60;94.70
45693;DHT22;31402;44.752;-0.374;2022-12-10T09:29:34;8.70;94.40
45693;DHT22;31402;44.752;-0.374;2022-12-10T09:32:00;8.90;95.90
45693;DHT22;31402;44.752;-0.374;2022-12-10T09:34:25;9.10;95.40
45693;DHT22;31402;44.752;-0.374;2022-12-10T09:36:51;9.20;94.60
45693;DHT22;31402;44.752;-0.374;2022-12-10T09:39:17;9.20;94.60
45693;DHT22;31402;44.752;-0.374;2022-12-10T09:42:07;9.20;94.20
45693;DHT22;31402;44.752;-0.374;2022-12-10T09:45:18;9.10;92.80
45693;DHT22;31402;44.752;-0.374;2022-12-10T09:47:45;9.10;92.90
45693;DHT22;31402;44.752;-0.374;2022-12-10T09:52:50;9.30;92.60
45693;DHT22;31402;44.752;-0.374;2022-12-10T09:55:32;9.40;92.60
45693;DHT22;31402;44.752;-0.374;2022-12-10T09:58:00;9.20;92.30
45693;DHT22;31402;44.752;-0.374;2022-12-10T10:00:32;9.10;92.00
45693;DHT22;31402;44.752;-0.374;2022-12-10T10:02:59;9.00;91.70
45693;DHT22;31402;44.752;-0.374;2022-12-10T10:05:32;8.70;94.00
45693;DHT22;31402;44.752;-0.374;2022-12-10T10:08:05;8.50;92.80
45693;DHT22;31402;44.752;-0.374;2022-12-10T10:10:37;8.40;93.50
45693;DHT22;31402;44.752;-0.374;2022-12-10T10:15:36;8.30;93.50
45693;DHT22;31402;44.752;-0.374;2022-12-10T10:20:54;8.00;92.80
45693;DHT22;31402;44.752;-0.374;2022-12-10T10:23:20;8.10;92.80
45693;DHT22;31402;44.752;-0.374;2022-12-10T10:25:46;7.80;93.40
45693;DHT22;31402;44.752;-0.374;2022-12-10T10:28:19;7.40;93.90
45693;DHT22;31402;44.752;-0.374;2022-12-10T10:30:46;7.30;93.70
45693;DHT22;31402;44.752;-0.374;2022-12-10T10:33:14;7.20;93.90
45693;DHT22;31402;44.752;-0.374;2022-12-10T10:35:49;7.20;94.10
45693;DHT22;31402;44.752;-0.374;2022-12-10T10:38:28;7.00;93.70
45693;DHT22;31402;44.752;-0.374;2022-12-10T10:41:00;6.90;93.90
45693;DHT22;31402;44.752;-0.374;2022-12-10T10:43:32;6.50;93.80
45693;DHT22;31402;44.752;-0.374;2022-12-10T10:46:02;6.60;94.40
45693;DHT22;31402;44.752;-0.374;2022-12-10T10:48:30;6.50;94.10
45693;DHT22;31402;44.752;-0.374;2022-12-10T10:53:45;6.40;93.90
45693;DHT22;31402;44.752;-0.374;2022-12-10T10:56:22;6.30;94.10
45693;DHT22;31402;44.752;-0.374;2022-12-10T11:01:50;6.00;94.60
45693;DHT22;31402;44.752;-0.374;2022-12-10T11:04:19;5.90;94.70
45693;DHT22;31402;44.752;-0.374;2022-12-10T11:06:48;6.10;95.10
45693;DHT22;31402;44.752;-0.374;2022-12-10T11:09:21;6.40;95.70
45693;DHT22;31402;44.752;-0.374;2022-12-10T11:11:52;6.60;95.70
45693;DHT22;31402;44.752;-0.374;2022-12-10T11:19:34;6.30;94.90
45693;DHT22;31402;44.752;-0.374;2022-12-10T11:22:20;6.40;95.30
45693;DHT22;31402;44.752;-0.374;2022-12-10T11:24:47;6.60;95.10
45693;DHT22;31402;44.752;-0.374;2022-12-10T11:30:49;6.40;95.00
45693;DHT22;31402;44.752;-0.374;2022-12-10T11:33:38;6.60;94.60
45693;DHT22;31402;44.752;-0.374;2022-12-10T11:42:14;7.20;94.10
45693;DHT22;31402;44.752;-0.374;2022-12-10T11:45:12;7.10;94.30
45693;DHT22;31402;44.752;-0.374;2022-12-10T11:50:27;6.90;94.80
45693;DHT22;31402;44.752;-0.374;2022-12-10T11:55:38;7.20;94.40
45693;DHT22;31402;44.752;-0.374;2022-12-10T12:03:51;7.40;94.50
45693;DHT22;31402;44.752;-0.374;2022-12-10T12:17:16;7.10;94.70
45693;DHT22;31402;44.752;-0.374;2022-12-10T12:19:49;6.90;94.60
45693;DHT22;31402;44.752;-0.374;2022-12-10T12:22:23;7.20;95.50
45693;DHT22;31402;44.752;-0.374;2022-12-10T12:24:54;7.60;94.70
45693;DHT22;31402;44.752;-0.374;2022-12-10T12:27:34;7.60;94.40
45693;DHT22;31402;44.752;-0.374;2022-12-10T12:30:14;8.00;93.30
45693;DHT22;31402;44.752;-0.374;2022-12-10T12:35:45;8.30;93.10
45693;DHT22;31402;44.752;-0.374;2022-12-10T12:40:49;8.30;93.10
45693;DHT22;31402;44.752;-0.374;2022-12-10T12:43:22;8.30;92.90
45693;DHT22;31402;44.752;-0.374;2022-12-10T12:45:54;8.10;93.30
45693;DHT22;31402;44.752;-0.374;2022-12-10T12:48:36;7.90;93.50
45693;DHT22;31402;44.752;-0.374;2022-12-10T12:53:49;8.30;92.40
45693;DHT22;31402;44.752;-0.374;2022-12-10T12:56:26;8.30;92.30
45693;DHT22;31402;44.752;-0.374;2022-12-10T12:59:13;8.10;92.40
45693;DHT22;31402;44.752;-0.374;2022-12-10T13:01:58;8.10;92.20
45693;DHT22;31402;44.752;-0.374;2022-12-10T13:04:25;8.00;92.40
45693;DHT22;31402;44.752;-0.374;2022-12-10T13:07:26;8.00;92.60
45693;DHT22;31402;44.752;-0.374;2022-12-10T13:10:42;7.70;92.60
45693;DHT22;31402;44.752;-0.374;2022-12-10T13:13:32;7.70;92.60
45693;DHT22;31402;44.752;-0.374;2022-12-10T13:29:56;7.00;93.60
45693;DHT22;31402;44.752;-0.374;2022-12-10T13:32:44;6.80;93.90
45693;DHT22;31402;44.752;-0.374;2022-12-10T13:42:40;7.00;93.40
45693;DHT22;31402;44.752;-0.374;2022-12-10T13:45:32;7.00;93.60
45693;DHT22;31402;44.752;-0.374;2022-12-10T13:48:18;6.90;93.60
45693;DHT22;31402;44.752;-0.374;2022-12-10T13:50:48;6.90;93.80
45693;DHT22;31402;44.752;-0.374;2022-12-10T13:55:55;6.80;93.50
45693;DHT22;31402;44.752;-0.374;2022-12-10T13:59:19;6.80;93.60
45693;DHT22;31402;44.752;-0.374;2022-12-10T14:02:06;6.80;94.10
45693;DHT22;31402;44.752;-0.374;2022-12-10T14:07:53;6.70;93.70
45693;DHT22;31402;44.752;-0.374;2022-12-10T14:10:26;6.50;94.00
45693;DHT22;31402;44.752;-0.374;2022-12-10T14:12:53;6.50;94.10
45693;DHT22;31402;44.752;-0.374;2022-12-10T14:15:23;6.40;94.30
45693;DHT22;31402;44.752;-0.374;2022-12-10T14:17:52;6.40;94.40
45693;DHT22;31402;44.752;-0.374;2022-12-10T14:20:24;6.60;94.30
45693;DHT22;31402;44.752;-0.374;2022-12-10T14:22:54;6.80;94.00
45693;DHT22;31402;44.752;-0.374;2022-12-10T14:25:45;6.80;93.50
45693;DHT22;31402;44.752;-0.374;2022-12-10T14:28:16;6.90;93.20
45693;DHT22;31402;44.752;-0.374;2022-12-10T14:30:45;6.80;93.50
45693;DHT22;31402;44.752;-0.374;2022-12-10T14:33:15;6.60;93.60
45693;DHT22;31402;44.752;-0.374;2022-12-10T14:35:42;6.70;93.80
45693;DHT22;31402;44.752;-0.374;2022-12-10T14:41:15;6.90;93.20
45693;DHT22;31402;44.752;-0.374;2022-12-10T14:43:42;6.90;93.00
45693;DHT22;31402;44.752;-0.374;2022-12-10T14:46:21;6.90;92.80
45693;DHT22;31402;44.752;-0.374;2022-12-10T14:48:52;6.80;93.10
45693;DHT22;31402;44.752;-0.374;2022-12-10T14:51:22;6.90;92.90
45693;DHT22;31402;44.752;-0.374;2022-12-10T14:53:50;6.80;93.10
45693;DHT22;31402;44.752;-0.374;2022-12-10T14:59:12;6.70;93.70
45693;DHT22;31402;44.752;-0.374;2022-12-10T15:01:43;6.80;93.20
45693;DHT22;31402;44.752;-0.374;2022-12-10T15:04:17;6.90;93.50
45693;DHT22;31402;44.752;-0.374;2022-12-10T15:06:44;6.80;93.50
45693;DHT22;31402;44.752;-0.374;2022-12-10T15:09:18;6.70;94.50
45693;DHT22;31402;44.752;-0.374;2022-12-10T15:11:45;6.70;93.80
45693;DHT22;31402;44.752;-0.374;2022-12-10T15:14:17;6.70;94.80
45693;DHT22;31402;44.752;-0.374;2022-12-10T15:16:45;6.90;94.10
45693;DHT22;31402;44.752;-0.374;2022-12-10T15:22:16;6.70;95.00
45693;DHT22;31402;44.752;-0.374;2022-12-10T15:24:43;6.70;94.80
45693;DHT22;31402;44.752;-0.374;2022-12-10T15:27:20;6.70;94.60
45693;DHT22;31402;44.752;-0.374;2022-12-10T15:29:47;6.90;95.10
45693;DHT22;31402;44.752;-0.374;2022-12-10T15:34:53;6.90;94.00
45693;DHT22;31402;44.752;-0.374;2022-12-10T15:37:25;6.90;93.90
45693;DHT22;31402;44.752;-0.374;2022-12-10T15:39:57;6.80;93.90
45693;DHT22;31402;44.752;-0.374;2022-12-10T15:42:30;6.60;93.80
45693;DHT22;31402;44.752;-0.374;2022-12-10T15:45:00;6.40;94.00
45693;DHT22;31402;44.752;-0.374;2022-12-10T15:47:27;6.30;94.00
45693;DHT22;31402;44.752;-0.374;2022-12-10T15:49:54;6.20;94.20
45693;DHT22;31402;44.752;-0.374;2022-12-10T15:52:29;6.10;94.30
45693;DHT22;31402;44.752;-0.374;2022-12-10T15:54:56;6.10;94.70
45693;DHT22;31402;44.752;-0.374;2022-12-10T15:57:28;6.10;94.70
45693;DHT22;31402;44.752;-0.374;2022-12-10T15:59:56;6.10;94.60
45693;DHT22;31402;44.752;-0.374;2022-12-10T16:05:30;6.10;95.50
45693;DHT22;31402;44.752;-0.374;2022-12-10T16:08:00;6.30;95.50
45693;DHT22;31402;44.752;-0.374;2022-12-10T16:10:27;6.30;94.80
45693;DHT22;31402;44.752;-0.374;2022-12-10T16:13:10;6.40;95.90
45693;DHT22;31402;44.752;-0.374;2022-12-10T16:15:43;6.30;94.40
45693;DHT22;31402;44.752;-0.374;2022-12-10T16:18:10;6.10;94.50
45693;DHT22;31402;44.752;-0.374;2022-12-10T16:20:37;5.90;94.60
45693;DHT22;31402;44.752;-0.374;2022-12-10T16:23:03;5.90;94.60
45693;DHT22;31402;44.752;-0.374;2022-12-10T16:25:32;5.80;94.70
45693;DHT22;31402;44.752;-0.374;2022-12-10T16:27:59;5.70;94.90
45693;DHT22;31402;44.752;-0.374;2022-12-10T16:30:34;5.70;94.70
45693;DHT22;31402;44.752;-0.374;2022-12-10T16:33:02;5.70;94.80
45693;DHT22;31402;44.752;-0.374;2022-12-10T16:35:28;5.60;95.20
45693;DHT22;31402;44.752;-0.374;2022-12-10T16:37:54;5.70;94.90
45693;DHT22;31402;44.752;-0.374;2022-12-10T16:40:24;5.70;95.20
45693;DHT22;31402;44.752;-0.374;2022-12-10T16:42:50;5.60;94.90
45693;DHT22;31402;44.752;-0.374;2022-12-10T16:45:38;5.50;95.50
45693;DHT22;31402;44.752;-0.374;2022-12-10T16:48:04;5.40;95.00
45693;DHT22;31402;44.752;-0.374;2022-12-10T16:50:31;5.40;95.10
45693;DHT22;31402;44.752;-0.374;2022-12-10T16:52:57;5.70;95.40
45693;DHT22;31402;44.752;-0.374;2022-12-10T16:55:25;5.80;95.20
45693;DHT22;31402;44.752;-0.374;2022-12-10T16:57:52;5.80;94.60
45693;DHT22;31402;44.752;-0.374;2022-12-10T17:00:21;5.60;94.70
45693;DHT22;31402;44.752;-0.374;2022-12-10T17:02:48;5.40;94.90
45693;DHT22;31402;44.752;-0.374;2022-12-10T17:05:39;5.30;95.20
45693;DHT22;31402;44.752;-0.374;2022-12-10T17:08:02;5.40;96.20
45693;DHT22;31402;44.752;-0.374;2022-12-10T17:10:28;5.60;95.40
45693;DHT22;31402;44.752;-0.374;2022-12-10T17:13:13;5.50;95.30
45693;DHT22;31402;44.752;-0.374;2022-12-10T17:15:41;5.40;95.40
45693;DHT22;31402;44.752;-0.374;2022-12-10T17:18:17;5.30;95.30
45693;DHT22;31402;44.752;-0.374;2022-12-10T17:20:44;5.30;95.60
45693;DHT22;31402;44.752;-0.374;2022-12-10T17:23:10;5.50;95.40
45693;DHT22;31402;44.752;-0.374;2022-12-10T17:25:37;5.60;95.30
45693;DHT22;31402;44.752;-0.374;2022-12-10T17:28:03;5.60;95.40
45693;DHT22;31402;44.752;-0.374;2022-12-10T17:30:29;5.60;95.30
45693;DHT22;31402;44.752;-0.374;2022-12-10T17:32:55;5.60;95.10
45693;DHT22;31402;44.752;-0.374;2022-12-10T17:35:21;5.70;94.80
45693;DHT22;31402;44.752;-0.374;2022-12-10T17:37:48;5.50;94.70
45693;DHT22;31402;44.752;-0.374;2022-12-10T17:40:21;5.30;94.90
45693;DHT22;31402;44.752;-0.374;2022-12-10T17:42:47;5.10;95.30
45693;DHT22;31402;44.752;-0.374;2022-12-10T17:45:16;5.00;95.50
45693;DHT22;31402;44.752;-0.374;2022-12-10T17:47:42;4.90;95.50